createdAt,value
2017-11-04T00:00:13.991Z,5.10
2017-11-04T00:02:41.518Z,5.10
2017-11-04T00:05:09.029Z,5.10
2017-11-04T00:07:36.595Z,5.10
2017-11-04T00:10:04.100Z,5.00
2017-11-04T00:12:31.603Z,5.10
2017-11-04T00:14:59.236Z,5.00
2017-11-04T00:17:27.612Z,5.00
2017-11-04T00:19:55.114Z,4.90
2017-11-04T00:22:22.812Z,4.90
2017-11-04T00:24:50.319Z,4.80
2017-11-04T00:27:17.822Z,4.80
2017-11-04T00:29:45.368Z,4.70
2017-11-04T00:32:12.875Z,4.70
2017-11-04T00:34:40.386Z,4.60
2017-11-04T00:37:08.124Z,4.60
2017-11-04T00:39:35.636Z,4.60
2017-11-04T00:42:03.336Z,4.70
2017-11-04T00:44:30.949Z,4.70
2017-11-04T00:46:58.459Z,4.80
2017-11-04T00:49:25.977Z,4.90
2017-11-04T00:51:53.556Z,5.00
2017-11-04T00:54:21.943Z,5.00
2017-11-04T00:56:49.467Z,5.00
2017-11-04T00:59:17.043Z,4.90
2017-11-04T01:01:44.803Z,4.70
2017-11-04T01:04:12.299Z,4.70
2017-11-04T01:06:39.835Z,4.70
2017-11-04T01:09:07.488Z,4.80
2017-11-04T01:11:35.002Z,4.70
2017-11-04T01:14:02.749Z,4.60
2017-11-04T01:16:30.252Z,4.50
2017-11-04T01:18:58.072Z,4.50
2017-11-04T01:21:25.628Z,4.50
2017-11-04T01:23:53.218Z,4.50
2017-11-04T01:26:20.777Z,4.50
2017-11-04T01:28:48.335Z,4.40
2017-11-04T01:31:15.852Z,4.40
2017-11-04T01:33:50.119Z,4.60
2017-11-04T01:36:17.632Z,4.60
2017-11-04T01:38:45.172Z,4.70
2017-11-04T01:41:12.739Z,4.60
2017-11-04T01:43:41.023Z,4.50
2017-11-04T01:46:08.572Z,4.50
2017-11-04T01:48:35.779Z,4.40
2017-11-04T01:51:03.305Z,4.40
2017-11-04T01:53:30.321Z,4.40
2017-11-04T01:55:57.991Z,4.40
2017-11-04T01:58:25.519Z,4.40
2017-11-04T02:00:53.043Z,4.40
2017-11-04T02:03:20.611Z,4.40
2017-11-04T02:05:48.143Z,4.40
2017-11-04T02:08:15.981Z,4.40
2017-11-04T02:10:44.344Z,4.40
2017-11-04T02:13:11.902Z,4.40
2017-11-04T02:15:39.411Z,4.30
2017-11-04T02:18:07.081Z,4.20
2017-11-04T02:20:34.591Z,4.20
2017-11-04T02:23:02.460Z,4.10
2017-11-04T02:25:30.102Z,4.10
2017-11-04T02:27:58.387Z,3.80
2017-11-04T02:30:25.895Z,3.90
2017-11-04T02:32:53.645Z,3.90
2017-11-04T02:35:21.962Z,3.90
2017-11-04T02:37:49.472Z,3.90
2017-11-04T02:40:17.140Z,4.00
2017-11-04T02:42:44.707Z,4.00
2017-11-04T02:45:12.211Z,4.10
2017-11-04T02:47:39.779Z,4.00
2017-11-04T02:50:07.319Z,4.00
2017-11-04T02:52:35.274Z,4.10
2017-11-04T02:55:02.943Z,4.30
2017-11-04T02:57:30.590Z,4.30
2017-11-04T02:59:58.152Z,4.30
2017-11-04T03:02:25.711Z,4.30
2017-11-04T03:04:53.224Z,4.30
2017-11-04T03:07:20.723Z,4.30
2017-11-04T03:09:48.262Z,4.30
2017-11-04T03:12:15.807Z,4.20
2017-11-04T03:14:43.379Z,4.20
2017-11-04T03:17:11.527Z,4.20
2017-11-04T03:19:39.040Z,4.20
2017-11-04T03:22:07.503Z,4.10
2017-11-04T03:24:35.211Z,4.10
2017-11-04T03:27:02.720Z,4.10
2017-11-04T03:29:30.273Z,4.00
2017-11-04T03:31:58.603Z,3.90
2017-11-04T03:34:26.108Z,3.80
2017-11-04T03:36:53.643Z,3.80
2017-11-04T03:39:21.171Z,3.90
2017-11-04T03:41:48.688Z,3.90
2017-11-04T03:44:16.211Z,3.80
2017-11-04T03:46:43.926Z,3.80
2017-11-04T03:49:11.459Z,3.80
2017-11-04T03:51:38.975Z,3.90
2017-11-04T03:54:06.547Z,3.90
2017-11-04T03:56:34.172Z,3.90
2017-11-04T03:59:01.695Z,4.00
2017-11-04T04:01:29.244Z,4.20
2017-11-04T04:03:56.784Z,4.20
2017-11-04T04:06:24.364Z,4.30
2017-11-04T04:08:51.896Z,4.40
2017-11-04T04:11:19.398Z,4.40
2017-11-04T04:13:46.986Z,4.50
2017-11-04T04:16:14.519Z,4.60
2017-11-04T04:18:42.056Z,4.70
2017-11-04T04:21:09.606Z,4.70
2017-11-04T04:23:37.107Z,4.80
2017-11-04T04:26:05.327Z,4.70
2017-11-04T04:28:32.899Z,4.70
2017-11-04T04:31:00.402Z,4.60
2017-11-04T04:33:27.933Z,4.50
2017-11-04T04:35:55.467Z,4.50
2017-11-04T04:38:22.983Z,4.50
2017-11-04T04:40:50.478Z,4.50
2017-11-04T04:43:18.134Z,4.50
2017-11-04T04:45:45.648Z,4.50
2017-11-04T04:48:13.245Z,4.60
2017-11-04T04:50:40.775Z,4.60
2017-11-04T04:53:08.331Z,4.70
2017-11-04T04:55:36.604Z,4.70
2017-11-04T04:58:05.050Z,4.70
2017-11-04T05:00:32.843Z,4.70
2017-11-04T05:03:00.421Z,4.70
2017-11-04T05:05:28.767Z,4.80
2017-11-04T05:07:56.281Z,4.90
2017-11-04T05:10:23.791Z,4.90
2017-11-04T05:12:51.490Z,5.00
2017-11-04T05:15:19.005Z,5.10
2017-11-04T05:17:46.559Z,5.20
2017-11-04T05:20:14.128Z,5.20
2017-11-04T05:22:41.640Z,5.10
2017-11-04T05:25:09.872Z,5.00
2017-11-04T05:27:37.497Z,5.00
2017-11-04T05:30:05.028Z,5.00
2017-11-04T05:32:32.540Z,4.90
2017-11-04T05:35:00.127Z,4.90
2017-11-04T05:37:27.697Z,4.90
2017-11-04T05:39:55.202Z,5.00
2017-11-04T05:42:22.768Z,4.90
2017-11-04T05:44:50.296Z,5.00
2017-11-04T05:47:17.800Z,5.00
2017-11-04T05:49:45.522Z,5.10
2017-11-04T05:52:14.867Z,5.10
2017-11-04T05:54:42.377Z,5.10
2017-11-04T05:57:09.935Z,5.20
2017-11-04T05:59:37.459Z,5.20
2017-11-04T06:02:05.725Z,5.30
2017-11-04T06:04:33.284Z,5.30
2017-11-04T06:07:00.826Z,5.30
2017-11-04T06:09:28.331Z,5.30
2017-11-04T06:11:55.876Z,5.30
2017-11-04T06:14:23.394Z,5.30
2017-11-04T06:16:50.895Z,5.30
2017-11-04T06:19:19.211Z,5.20
2017-11-04T06:21:46.871Z,5.20
2017-11-04T06:24:14.375Z,5.20
2017-11-04T06:26:41.956Z,5.20
2017-11-04T06:29:10.256Z,5.30
2017-11-04T06:31:37.788Z,5.30
2017-11-04T06:34:05.372Z,5.30
2017-11-04T06:36:32.879Z,5.30
2017-11-04T06:39:00.401Z,5.40
2017-11-04T06:41:27.946Z,5.50
2017-11-04T06:43:55.463Z,5.50
2017-11-04T06:46:22.997Z,5.60
2017-11-04T06:48:50.679Z,5.60
2017-11-04T06:51:18.269Z,5.60
2017-11-04T06:53:45.820Z,5.60
2017-11-04T06:56:14.155Z,5.70
2017-11-04T06:58:41.712Z,5.60
2017-11-04T07:01:09.224Z,5.70
2017-11-04T07:03:36.898Z,5.80
2017-11-04T07:06:04.459Z,5.80
2017-11-04T07:08:31.959Z,5.80
2017-11-04T07:10:59.652Z,5.90
2017-11-04T07:13:28.097Z,6.00
2017-11-04T07:15:55.618Z,5.80
2017-11-04T07:18:23.289Z,5.90
2017-11-04T07:20:50.799Z,6.00
2017-11-04T07:23:18.329Z,6.00
2017-11-04T07:25:45.879Z,6.10
2017-11-04T07:28:13.396Z,6.20
2017-11-04T07:30:41.011Z,6.30
2017-11-04T07:33:08.862Z,6.40
2017-11-04T07:35:37.295Z,6.50
2017-11-04T07:38:04.915Z,6.70
2017-11-04T07:40:33.333Z,6.90
2017-11-04T07:43:00.902Z,7.00
2017-11-04T07:45:29.892Z,7.20
2017-11-04T07:47:57.482Z,7.20
2017-11-04T07:50:25.090Z,7.30
2017-11-04T07:52:52.629Z,7.40
2017-11-04T07:55:20.241Z,7.40
2017-11-04T07:57:48.527Z,7.40
2017-11-04T08:00:16.811Z,7.30
2017-11-04T08:02:44.399Z,7.30
2017-11-04T08:05:11.973Z,7.40
2017-11-04T08:07:39.612Z,7.50
2017-11-04T08:10:07.206Z,7.60
2017-11-04T08:12:34.732Z,7.70
2017-11-04T08:15:02.317Z,7.60
2017-11-04T08:17:29.934Z,7.70
2017-11-04T08:19:57.518Z,7.90
2017-11-04T08:22:25.027Z,8.00
2017-11-04T08:24:52.581Z,8.10
2017-11-04T08:27:20.156Z,8.10
2017-11-04T08:29:48.127Z,8.10
2017-11-04T08:32:17.679Z,8.30
2017-11-04T08:34:45.263Z,8.30
2017-11-04T08:37:12.828Z,8.20
2017-11-04T08:39:40.519Z,8.20
2017-11-04T08:42:08.020Z,8.20
2017-11-04T08:44:35.528Z,8.30
2017-11-04T08:47:04.040Z,8.70
2017-11-04T08:49:31.587Z,8.70
2017-11-04T08:51:59.239Z,8.90
2017-11-04T08:54:26.871Z,9.10
2017-11-04T08:56:54.372Z,9.40
2017-11-04T08:59:21.914Z,9.50
2017-11-04T09:01:50.243Z,9.70
2017-11-04T09:04:17.882Z,9.70
2017-11-04T09:06:45.396Z,9.80
2017-11-04T09:09:13.031Z,9.80
2017-11-04T09:11:40.543Z,10.10
2017-11-04T09:14:08.159Z,10.30
2017-11-04T09:16:35.727Z,10.60
2017-11-04T09:19:03.455Z,10.80
2017-11-04T09:21:30.967Z,10.90
2017-11-04T09:23:58.544Z,11.00
2017-11-04T09:26:26.820Z,11.20
2017-11-04T09:28:55.112Z,11.10
2017-11-04T09:31:22.751Z,11.20
2017-11-04T09:33:51.051Z,11.40
2017-11-04T09:36:18.580Z,11.40
2017-11-04T09:38:46.176Z,11.70
2017-11-04T09:41:13.696Z,11.50
2017-11-04T09:43:42.103Z,11.80
2017-11-04T09:46:09.742Z,11.80
2017-11-04T09:48:38.015Z,12.00
2017-11-04T09:51:05.520Z,11.90
2017-11-04T09:53:33.311Z,11.90
2017-11-04T09:56:00.903Z,12.00
2017-11-04T09:58:28.491Z,12.00
2017-11-04T10:00:56.004Z,12.10
2017-11-04T10:03:23.798Z,12.00
2017-11-04T10:05:51.371Z,12.10
2017-11-04T10:08:19.552Z,12.60
2017-11-04T10:10:47.695Z,12.60
2017-11-04T10:13:15.255Z,12.70
2017-11-04T10:15:43.917Z,13.10
2017-11-04T10:18:11.467Z,13.00
2017-11-04T10:20:39.474Z,12.80
2017-11-04T10:23:07.802Z,13.30
2017-11-04T10:25:35.433Z,13.30
2017-11-04T10:28:03.051Z,13.90
2017-11-04T10:30:30.559Z,14.30
2017-11-04T10:32:58.071Z,14.60
2017-11-04T10:35:25.892Z,14.70
2017-11-04T10:37:54.006Z,14.80
2017-11-04T10:40:21.855Z,15.10
2017-11-04T10:42:49.371Z,15.10
2017-11-04T10:45:16.958Z,15.10
2017-11-04T10:47:44.486Z,15.50
2017-11-04T10:50:12.021Z,15.00
2017-11-04T10:52:39.582Z,15.10
2017-11-04T10:55:07.086Z,15.00
2017-11-04T10:57:34.836Z,15.50
2017-11-04T11:00:02.553Z,15.40
2017-11-04T11:02:30.123Z,15.10
2017-11-04T11:04:57.711Z,15.30
2017-11-04T11:07:25.301Z,15.50
2017-11-04T11:09:52.954Z,15.60
2017-11-04T11:12:20.463Z,15.40
2017-11-04T11:14:48.103Z,15.10
2017-11-04T11:17:15.616Z,15.30
2017-11-04T11:19:43.336Z,15.40
2017-11-04T11:22:11.119Z,15.80
2017-11-04T11:24:38.683Z,15.80
2017-11-04T11:27:07.268Z,15.90
2017-11-04T11:29:34.785Z,15.90
2017-11-04T11:32:02.552Z,16.10
2017-11-04T11:34:30.249Z,16.20
2017-11-04T11:36:57.878Z,16.00
2017-11-04T11:39:25.395Z,15.90
2017-11-04T11:41:53.651Z,16.10
2017-11-04T11:44:21.168Z,16.40
2017-11-04T11:46:48.886Z,16.40
2017-11-04T11:49:17.571Z,16.70
2017-11-04T11:51:45.943Z,17.00
2017-11-04T11:54:13.455Z,17.00
2017-11-04T11:56:41.148Z,17.20
2017-11-04T11:59:08.688Z,17.10
2017-11-04T12:01:36.198Z,17.30
2017-11-04T12:04:03.816Z,17.40
2017-11-04T12:06:31.315Z,17.60
2017-11-04T12:08:58.859Z,17.60
2017-11-04T12:11:27.272Z,17.30
2017-11-04T12:13:54.788Z,17.30
2017-11-04T12:16:23.084Z,17.70
2017-11-04T12:18:51.400Z,17.90
2017-11-04T12:21:18.979Z,17.80
2017-11-04T12:23:47.023Z,18.00
2017-11-04T12:26:15.008Z,18.30
2017-11-04T12:28:42.507Z,18.40
2017-11-04T12:31:10.191Z,18.60
2017-11-04T12:33:37.922Z,18.70
2017-11-04T12:36:05.428Z,18.30
2017-11-04T12:38:32.936Z,18.30
2017-11-04T12:41:00.495Z,18.10
2017-11-04T12:43:28.005Z,18.30
2017-11-04T12:45:55.516Z,18.40
2017-11-04T12:48:23.102Z,18.60
2017-11-04T12:50:51.459Z,19.10
2017-11-04T12:53:19.006Z,19.10
2017-11-04T12:55:47.486Z,19.30
2017-11-04T12:58:15.057Z,19.40
2017-11-04T13:00:42.587Z,19.30
2017-11-04T13:03:10.276Z,19.40
2017-11-04T13:05:37.780Z,19.50
2017-11-04T13:08:05.326Z,19.20
2017-11-04T13:10:33.103Z,19.30
2017-11-04T13:13:00.676Z,19.30
2017-11-04T13:15:28.525Z,19.00
2017-11-04T13:17:56.071Z,18.90
2017-11-04T13:20:24.600Z,19.30
2017-11-04T13:22:52.199Z,19.30
2017-11-04T13:25:20.571Z,20.00
2017-11-04T13:27:48.293Z,20.00
2017-11-04T13:30:15.820Z,20.20
2017-11-04T13:32:43.430Z,19.90
2017-11-04T13:35:10.948Z,20.00
2017-11-04T13:37:38.691Z,20.00
2017-11-04T13:40:06.384Z,20.00
2017-11-04T13:42:33.967Z,19.60
2017-11-04T13:45:01.499Z,19.40
2017-11-04T13:47:29.065Z,19.40
2017-11-04T13:49:56.568Z,19.50
2017-11-04T13:52:24.080Z,19.70
2017-11-04T13:54:51.673Z,19.60
2017-11-04T13:57:19.185Z,19.40
2017-11-04T13:59:46.880Z,19.30
2017-11-04T14:02:14.440Z,19.00
2017-11-04T14:04:42.091Z,18.80
2017-11-04T14:07:09.595Z,18.50
2017-11-04T14:09:37.247Z,18.50
2017-11-04T14:12:04.755Z,18.60
2017-11-04T14:14:32.400Z,18.70
2017-11-04T14:16:59.951Z,18.50
2017-11-04T14:19:28.220Z,18.40
2017-11-04T14:21:55.929Z,18.40
2017-11-04T14:24:23.502Z,18.30
2017-11-04T14:26:51.015Z,18.40
2017-11-04T14:29:19.331Z,18.20
2017-11-04T14:31:47.009Z,18.20
2017-11-04T14:34:14.561Z,17.90
2017-11-04T14:36:42.138Z,18.00
2017-11-04T14:39:09.846Z,18.00
2017-11-04T14:41:37.407Z,17.90
2017-11-04T14:44:04.906Z,17.80
2017-11-04T14:46:32.650Z,17.70
2017-11-04T14:49:00.155Z,17.60
2017-11-04T14:51:27.672Z,17.60
2017-11-04T14:53:55.351Z,17.60
2017-11-04T14:56:23.058Z,17.50
2017-11-04T14:58:50.587Z,17.50
2017-11-04T15:01:18.195Z,17.30
2017-11-04T15:03:45.764Z,17.30
2017-11-04T15:06:13.955Z,17.20
2017-11-04T15:08:41.510Z,17.10
2017-11-04T15:11:09.109Z,17.00
2017-11-04T15:13:36.624Z,16.80
2017-11-04T15:16:04.137Z,16.70
2017-11-04T15:18:32.035Z,16.60
2017-11-04T15:20:59.547Z,16.40
2017-11-04T15:23:27.312Z,16.30
2017-11-04T15:25:54.903Z,16.10
2017-11-04T15:28:23.189Z,15.90
2017-11-04T15:30:51.470Z,15.80
2017-11-04T15:33:19.140Z,15.80
2017-11-04T15:35:46.663Z,15.70
2017-11-04T15:38:14.174Z,15.60
2017-11-04T15:40:41.783Z,15.50
2017-11-04T15:43:09.317Z,15.50
2017-11-04T15:45:36.827Z,15.30
2017-11-04T15:48:04.402Z,15.20
2017-11-04T15:50:31.932Z,15.00
2017-11-04T15:53:00.244Z,14.70
2017-11-04T15:55:27.837Z,14.70
2017-11-04T15:57:55.350Z,14.60
2017-11-04T16:00:22.865Z,14.40
2017-11-04T16:02:50.539Z,14.30
2017-11-04T16:05:18.059Z,14.20
2017-11-04T16:07:45.578Z,14.00
2017-11-04T16:10:14.004Z,13.70
2017-11-04T16:12:41.975Z,13.70
2017-11-04T16:15:09.560Z,13.60
2017-11-04T16:17:37.894Z,13.40
2017-11-04T16:20:05.510Z,13.30
2017-11-04T16:22:33.843Z,13.20
2017-11-04T16:25:01.366Z,13.20
2017-11-04T16:27:28.975Z,13.10
2017-11-04T16:29:56.540Z,13.00
2017-11-04T16:32:24.075Z,12.90
2017-11-04T16:34:51.592Z,12.80
2017-11-04T16:37:19.146Z,12.70
2017-11-04T16:39:47.432Z,12.50
2017-11-04T16:42:15.704Z,12.50
2017-11-04T16:44:44.040Z,12.40
2017-11-04T16:47:11.547Z,12.40
2017-11-04T16:49:39.064Z,12.30
2017-11-04T16:52:06.632Z,12.20
2017-11-04T16:54:34.371Z,12.20
2017-11-04T16:57:01.931Z,12.20
2017-11-04T16:59:29.500Z,12.20
2017-11-04T17:01:57.826Z,12.20
2017-11-04T17:04:26.108Z,12.20
2017-11-04T17:06:53.843Z,12.20
2017-11-04T17:09:21.352Z,12.30
2017-11-04T17:11:48.883Z,12.30
2017-11-04T17:14:16.437Z,12.30
2017-11-04T17:16:43.948Z,12.30
2017-11-04T17:19:11.515Z,12.30
2017-11-04T17:21:39.846Z,12.20
2017-11-04T17:24:07.378Z,12.20
2017-11-04T17:26:34.901Z,12.10
2017-11-04T17:29:02.528Z,12.00
2017-11-04T17:31:30.801Z,12.00
2017-11-04T17:33:59.165Z,12.00
2017-11-04T17:36:26.747Z,12.00
2017-11-04T17:38:54.272Z,12.00
2017-11-04T17:41:21.827Z,12.00
2017-11-04T17:43:49.435Z,12.00
2017-11-04T17:46:17.184Z,11.80
2017-11-04T17:48:45.580Z,11.70
2017-11-04T17:51:13.091Z,11.50
2017-11-04T17:53:40.733Z,11.70
2017-11-04T17:56:08.242Z,11.60
2017-11-04T17:58:36.031Z,11.50
2017-11-04T18:01:03.571Z,11.60
2017-11-04T18:03:31.199Z,11.60
2017-11-04T18:05:58.757Z,11.60
2017-11-04T18:08:26.290Z,11.60
2017-11-04T18:10:53.964Z,11.60
2017-11-04T18:13:21.543Z,11.60
2017-11-04T18:15:49.071Z,11.50
2017-11-04T18:18:16.765Z,11.50
2017-11-04T18:20:45.108Z,11.40
2017-11-04T18:23:12.631Z,11.40
2017-11-04T18:25:40.154Z,11.40
2017-11-04T18:28:07.800Z,11.30
2017-11-04T18:30:35.315Z,11.30
2017-11-04T18:33:02.875Z,11.30
2017-11-04T18:35:30.447Z,11.20
2017-11-04T18:37:57.959Z,11.10
2017-11-04T18:40:25.482Z,11.10
2017-11-04T18:42:53.091Z,10.80
2017-11-04T18:45:20.612Z,10.90
2017-11-04T18:47:48.131Z,10.90
2017-11-04T18:50:15.999Z,10.80
2017-11-04T18:52:43.510Z,10.80
2017-11-04T18:55:11.025Z,10.80
2017-11-04T18:57:38.573Z,10.80
2017-11-04T19:00:06.082Z,10.80
2017-11-04T19:02:33.736Z,10.80
2017-11-04T19:05:01.366Z,10.70
2017-11-04T19:07:28.866Z,10.60
2017-11-04T19:09:56.427Z,10.60
2017-11-04T19:12:23.979Z,10.50
2017-11-04T19:14:51.496Z,10.60
2017-11-04T19:17:19.118Z,10.60
2017-11-04T19:19:47.299Z,10.50
2017-11-04T19:22:14.942Z,10.40
2017-11-04T19:24:42.628Z,10.40
2017-11-04T19:27:10.908Z,10.20
2017-11-04T19:29:39.217Z,10.20
2017-11-04T19:32:06.884Z,10.10
2017-11-04T19:34:34.647Z,10.10
2017-11-04T19:37:02.678Z,10.00
2017-11-04T19:39:30.459Z,10.00
2017-11-04T19:41:58.140Z,9.80
2017-11-04T19:44:26.137Z,9.80
2017-11-04T19:46:53.694Z,9.80
2017-11-04T19:49:21.332Z,9.70
2017-11-04T19:51:48.914Z,9.70
2017-11-04T19:54:16.423Z,9.70
2017-11-04T19:56:44.898Z,9.70
2017-11-04T19:59:12.583Z,9.60
2017-11-04T20:01:40.231Z,9.60
2017-11-04T20:04:08.508Z,9.50
2017-11-04T20:06:36.108Z,9.50
2017-11-04T20:09:03.716Z,9.50
2017-11-04T20:11:31.240Z,9.50
2017-11-04T20:13:58.822Z,9.60
2017-11-04T20:16:26.396Z,9.60
2017-11-04T20:18:54.072Z,9.50
2017-11-04T20:21:22.401Z,9.30
2017-11-04T20:23:49.914Z,9.30
2017-11-04T20:26:18.548Z,9.40
2017-11-04T20:28:46.058Z,9.60
2017-11-04T20:31:13.626Z,9.50
2017-11-04T20:33:41.204Z,9.40
2017-11-04T20:36:08.711Z,9.30
2017-11-04T20:38:36.278Z,9.20
2017-11-04T20:41:03.931Z,9.10
2017-11-04T20:43:31.441Z,9.10
2017-11-04T20:45:58.947Z,9.10
2017-11-04T20:48:26.504Z,9.10
2017-11-04T20:50:54.048Z,9.00
2017-11-04T20:53:21.555Z,8.60
2017-11-04T20:55:49.287Z,8.80
2017-11-04T20:58:16.817Z,8.80
2017-11-04T21:00:44.359Z,8.80
2017-11-04T21:03:11.979Z,8.80
2017-11-04T21:05:39.560Z,8.90
2017-11-04T21:08:07.071Z,8.90
2017-11-04T21:10:34.697Z,8.80
2017-11-04T21:13:02.215Z,8.80
2017-11-04T21:15:29.758Z,8.70
2017-11-04T21:17:57.333Z,8.60
2017-11-04T21:20:24.891Z,8.60
2017-11-04T21:22:52.454Z,8.30
2017-11-04T21:25:20.016Z,8.30
2017-11-04T21:27:47.604Z,8.60
2017-11-04T21:30:15.163Z,8.60
2017-11-04T21:32:42.789Z,8.50
2017-11-04T21:35:10.350Z,8.50
2017-11-04T21:37:37.929Z,8.40
2017-11-04T21:40:05.614Z,8.40
2017-11-04T21:42:33.135Z,8.50
2017-11-04T21:45:00.694Z,8.60
2017-11-04T21:47:28.285Z,8.60
2017-11-04T21:49:56.255Z,8.60
2017-11-04T21:52:23.907Z,8.50
2017-11-04T21:54:51.869Z,8.40
2017-11-04T21:57:20.152Z,8.10
2017-11-04T21:59:48.476Z,8.20
2017-11-04T22:02:16.113Z,8.10
2017-11-04T22:04:43.718Z,8.30
2017-11-04T22:07:11.292Z,8.30
2017-11-04T22:09:39.252Z,8.20
2017-11-04T22:12:06.810Z,8.10
2017-11-04T22:14:34.435Z,8.10
2017-11-04T22:17:02.142Z,8.00
2017-11-04T22:19:29.647Z,8.00
2017-11-04T22:21:57.326Z,8.00
2017-11-04T22:24:25.112Z,8.00
2017-11-04T22:26:52.627Z,7.90
2017-11-04T22:29:20.248Z,7.80
2017-11-04T22:31:47.899Z,7.90
2017-11-04T22:34:15.427Z,8.10
2017-11-04T22:36:42.987Z,8.00
2017-11-04T22:39:10.613Z,7.90
2017-11-04T22:41:39.028Z,7.80
2017-11-04T22:44:06.531Z,7.80
2017-11-04T22:46:34.520Z,7.80
2017-11-04T22:49:02.188Z,7.80
2017-11-04T22:51:29.715Z,7.80
2017-11-04T22:53:57.579Z,7.90
2017-11-04T22:56:25.134Z,7.80
2017-11-04T22:58:52.714Z,7.80
2017-11-04T23:01:21.061Z,7.90
2017-11-04T23:03:49.755Z,7.90
2017-11-04T23:06:17.264Z,7.90
2017-11-04T23:08:45.608Z,8.00
2017-11-04T23:11:13.358Z,7.90
2017-11-04T23:13:40.944Z,7.70
2017-11-04T23:16:09.366Z,7.70
2017-11-04T23:18:36.983Z,7.70
2017-11-04T23:21:04.509Z,7.80
2017-11-04T23:23:32.356Z,7.90
2017-11-04T23:25:59.960Z,7.90
2017-11-04T23:28:27.644Z,7.80
2017-11-04T23:30:55.227Z,7.70
2017-11-04T23:33:22.759Z,7.70
2017-11-04T23:35:50.633Z,7.70
2017-11-04T23:38:18.235Z,7.70
2017-11-04T23:40:46.360Z,7.70
2017-11-04T23:43:13.886Z,7.80
2017-11-04T23:45:41.476Z,8.00
2017-11-04T23:48:09.100Z,8.10
2017-11-04T23:50:36.688Z,8.10
2017-11-04T23:53:04.547Z,8.20
2017-11-04T23:55:32.060Z,8.30
2017-11-04T23:57:59.674Z,8.30
